Time;durP1;ratioP1;P1;durP2;ratioP2;P2;SDS_P1;SDS_P2;PMS_P1;PMS_P2;Temp;Humidity;BMP_temperature;BMP_pressure;BME280_temperature;BME280_humidity;BME280_pressure;Samples;Min_cycle;Max_cycle;Signal;HPM_P1;HPM_P2
2024/02/16 00:01:54;;;;;;;2.83;2.47;;;16.50;1.00;;;;;;2611340;39;20820;-63
2024/02/16 00:04:20;;;;;;;2.90;1.80;;;16.50;1.00;;;;;;2611776;54;20166;-63
2024/02/16 00:06:47;;;;;;;1.70;1.60;;;16.50;1.00;;;;;;2612314;54;20226;-62
2024/02/16 00:09:13;;;;;;;1.70;1.60;;;16.50;1.00;;;;;;2613511;54;20389;-62
2024/02/16 00:11:38;;;;;;;1.33;1.23;;;16.50;1.00;;;;;;2613913;54;20957;-61
2024/02/16 00:14:04;;;;;;;1.87;1.77;;;16.50;1.00;;;;;;2613397;39;20611;-62
2024/02/16 00:16:30;;;;;;;1.40;1.30;;;16.50;1.00;;;;;;2614753;31;20641;-62
2024/02/16 00:18:55;;;;;;;1.70;1.60;;;16.50;1.00;;;;;;2612951;54;20173;-62
2024/02/16 00:21:21;;;;;;;1.60;1.50;;;16.50;1.00;;;;;;2613426;54;20148;-62
2024/02/16 00:23:47;;;;;;;1.70;1.40;;;16.50;1.00;;;;;;2613609;54;20148;-59
2024/02/16 00:26:12;;;;;;;1.63;1.53;;;16.50;1.00;;;;;;2613595;54;20154;-59
2024/02/16 00:28:38;;;;;;;1.97;1.87;;;16.50;1.00;;;;;;2612791;54;20162;-58
2024/02/16 00:31:05;;;;;;;1.40;1.30;;;16.50;1.00;;;;;;2613645;54;20150;-60
2024/02/16 00:33:31;;;;;;;1.80;1.70;;;16.50;1.00;;;;;;2613874;39;20574;-60
2024/02/16 00:35:56;;;;;;;1.73;1.63;;;16.50;1.00;;;;;;2613349;54;20423;-59
2024/02/16 00:38:23;;;;;;;2.50;1.37;;;16.50;1.00;;;;;;2613520;54;20144;-59
2024/02/16 00:40:49;;;;;;;1.73;1.47;;;16.50;1.00;;;;;;2613768;54;20159;-59
2024/02/16 00:43:15;;;;;;;1.80;1.70;;;16.50;1.00;;;;;;2613045;54;20478;-66
2024/02/16 00:45:44;;;;;;;1.73;1.63;;;16.50;1.00;;;;;;2613541;47;20174;-66
2024/02/16 00:48:09;;;;;;;1.93;1.53;;;16.50;1.00;;;;;;2614259;39;20677;-66
2024/02/16 00:50:35;;;;;;;2.30;1.80;;;16.50;1.00;;;;;;2613388;54;20428;-67
2024/02/16 00:53:01;;;;;;;1.73;1.33;;;16.50;1.00;;;;;;2612032;54;20147;-67
2024/02/16 00:55:27;;;;;;;1.90;1.80;;;16.50;1.00;;;;;;2613034;54;20420;-67
2024/02/16 00:57:52;;;;;;;1.30;1.20;;;16.50;1.00;;;;;;2612149;54;20827;-67
2024/02/16 01:00:19;;;;;;;1.67;1.57;;;16.50;1.00;;;;;;2613039;47;20181;-67
2024/02/16 01:02:45;;;;;;;1.60;1.50;;;16.50;1.00;;;;;;2612928;54;20172;-67
2024/02/16 01:05:11;;;;;;;1.60;1.50;;;16.50;1.00;;;;;;2612863;54;20438;-61
2024/02/16 01:07:37;;;;;;;1.43;1.30;;;16.50;1.00;;;;;;2613190;54;20274;-61
2024/02/16 01:10:03;;;;;;;1.40;1.30;;;16.50;1.00;;;;;;2613181;54;20151;-61
2024/02/16 01:12:30;;;;;;;2.50;1.80;;;16.50;1.00;;;;;;2612466;54;20443;-61
2024/02/16 01:14:56;;;;;;;1.77;1.67;;;16.50;1.00;;;;;;2613027;47;20434;-61
2024/02/16 01:17:22;;;;;;;1.60;1.50;;;16.50;1.00;;;;;;2613091;54;20503;-61
2024/02/16 01:19:47;;;;;;;1.90;1.70;;;16.50;1.00;;;;;;2612968;54;21108;-61
2024/02/16 01:22:13;;;;;;;1.60;1.50;;;16.50;1.00;;;;;;2613373;54;20160;-61
2024/02/16 01:24:39;;;;;;;1.40;1.30;;;16.50;1.00;;;;;;2613508;54;20149;-61
2024/02/16 01:27:05;;;;;;;1.50;1.40;;;16.50;1.00;;;;;;2613629;54;20405;-61
2024/02/16 01:29:32;;;;;;;1.87;1.73;;;16.50;1.00;;;;;;2613280;39;20599;-61
2024/02/16 01:31:58;;;;;;;1.87;1.73;;;16.50;1.00;;;;;;2612626;47;20175;-61
2024/02/16 01:34:24;;;;;;;1.93;1.50;;;16.50;1.00;;;;;;2613399;54;20405;-61
2024/02/16 01:36:49;;;;;;;1.20;1.10;;;16.50;1.00;;;;;;2613228;54;20451;-62
2024/02/16 01:39:15;;;;;;;1.60;1.50;;;16.50;1.00;;;;;;2613861;54;20179;-62
2024/02/16 01:41:40;;;;;;;1.37;1.27;;;16.50;1.00;;;;;;2613714;54;20164;-61
2024/02/16 01:44:06;;;;;;;1.43;1.33;;;16.50;1.00;;;;;;2613547;54;20150;-62
2024/02/16 01:46:33;;;;;;;1.90;1.70;;;16.50;1.00;;;;;;2612485;54;20164;-62
2024/02/16 01:48:59;;;;;;;1.70;1.60;;;16.50;1.00;;;;;;2612267;47;20332;-62
2024/02/16 01:51:25;;;;;;;1.80;1.60;;;16.50;1.00;;;;;;2613353;47;20427;-62
2024/02/16 01:53:52;;;;;;;1.93;1.50;;;16.50;1.00;;;;;;2613280;54;20395;-59
2024/02/16 01:56:20;;;;;;;1.70;1.47;;;16.50;1.00;;;;;;2612761;47;20420;-60
2024/02/16 01:58:46;;;;;;;1.57;1.47;;;16.50;1.00;;;;;;2612846;39;20795;-60
2024/02/16 02:01:12;;;;;;;1.57;1.47;;;16.50;1.00;;;;;;2612979;54;20439;-59
2024/02/16 02:03:37;;;;;;;1.50;1.40;;;16.50;1.00;;;;;;2613302;54;20393;-60
2024/02/16 02:06:03;;;;;;;1.77;1.60;;;16.50;1.00;;;;;;2612914;54;20255;-60
2024/02/16 02:08:29;;;;;;;1.63;1.53;;;16.50;1.00;;;;;;2613292;54;20162;-60
2024/02/16 02:10:54;;;;;;;1.50;1.40;;;16.50;1.00;;;;;;2612725;54;20172;-60
2024/02/16 02:13:21;;;;;;;1.67;1.50;;;16.50;1.00;;;;;;2612692;54;20143;-71
2024/02/16 02:15:48;;;;;;;1.57;1.43;;;16.50;1.00;;;;;;2613357;54;20193;-59
2024/02/16 02:18:14;;;;;;;1.77;1.67;;;16.50;1.00;;;;;;2613584;54;20973;-58
2024/02/16 02:20:39;;;;;;;1.50;1.40;;;16.50;1.00;;;;;;2613119;54;20455;-59
2024/02/16 02:23:05;;;;;;;1.77;1.67;;;16.50;1.00;;;;;;2612599;54;20167;-59
2024/02/16 02:25:31;;;;;;;1.67;1.57;;;16.50;1.00;;;;;;2612664;54;20424;-59
2024/02/16 02:27:56;;;;;;;2.00;1.80;;;16.50;1.00;;;;;;2613524;54;20154;-59
2024/02/16 02:30:22;;;;;;;2.13;1.93;;;16.50;1.00;;;;;;2612725;54;20261;-59
2024/02/16 02:32:50;;;;;;;1.70;1.60;;;16.50;1.00;;;;;;2613071;39;20534;-59
2024/02/16 02:35:17;;;;;;;1.97;1.47;;;16.50;1.00;;;;;;2613062;54;20522;-59
2024/02/16 02:37:43;;;;;;;2.00;1.80;;;16.50;1.00;;;;;;2612525;54;20401;-59
2024/02/16 02:40:09;;;;;;;1.97;1.87;;;16.50;1.00;;;;;;2613084;54;20422;-59
2024/02/16 02:42:35;;;;;;;2.00;1.50;;;16.50;1.00;;;;;;2613305;39;20697;-59
2024/02/16 02:45:05;;;;;;;1.83;1.73;;;16.50;1.00;;;;;;2613363;54;20514;-64
2024/02/16 02:47:32;;;;;;;1.50;1.40;;;16.50;1.00;;;;;;2613036;47;20436;-64
2024/02/16 02:49:57;;;;;;;1.60;1.50;;;16.50;1.00;;;;;;2613142;54;20406;-64
2024/02/16 02:52:23;;;;;;;1.57;1.47;;;16.50;1.00;;;;;;2612199;47;20429;-64
2024/02/16 02:54:49;;;;;;;2.30;1.80;;;16.50;1.00;;;;;;2613180;54;20210;-64
2024/02/16 02:57:14;;;;;;;1.70;1.60;;;16.50;1.00;;;;;;2612828;54;20210;-64
2024/02/16 02:59:40;;;;;;;1.70;1.60;;;16.50;1.00;;;;;;2612618;54;20157;-63
2024/02/16 03:02:06;;;;;;;1.83;1.73;;;16.50;1.00;;;;;;2611968;54;20169;-64
2024/02/16 03:04:31;;;;;;;2.47;1.60;;;16.50;1.00;;;;;;2612513;54;20163;-61
2024/02/16 03:06:57;;;;;;;1.83;1.73;;;16.50;1.00;;;;;;2612042;54;20151;-62
2024/02/16 03:09:22;;;;;;;2.20;2.00;;;16.50;1.00;;;;;;2613060;54;20163;-62
2024/02/16 03:11:49;;;;;;;1.40;1.30;;;16.50;1.00;;;;;;2613205;39;20547;-62
2024/02/16 03:14:16;;;;;;;2.10;1.90;;;16.50;1.00;;;;;;2612969;54;20173;-63
2024/02/16 03:16:42;;;;;;;2.30;1.93;;;16.50;1.00;;;;;;2613219;54;20408;-62
2024/02/16 03:19:08;;;;;;;1.47;1.37;;;16.50;1.00;;;;;;2612178;54;21782;-61
2024/02/16 03:21:34;;;;;;;1.60;1.50;;;16.50;1.00;;;;;;2613245;47;20253;-62
2024/02/16 03:24:01;;;;;;;2.07;1.87;;;16.50;1.00;;;;;;2612893;54;20447;-59
2024/02/16 03:26:27;;;;;;;1.60;1.50;;;16.50;1.00;;;;;;2612748;54;20424;-60
2024/02/16 03:28:53;;;;;;;1.60;1.50;;;16.50;1.00;;;;;;2612593;54;20840;-60
2024/02/16 03:31:20;;;;;;;2.13;1.50;;;16.50;1.00;;;;;;2611917;54;20154;-59
2024/02/16 03:33:46;;;;;;;1.60;1.50;;;16.50;1.00;;;;;;2613366;51;20151;-59
2024/02/16 03:36:13;;;;;;;2.33;1.63;;;16.50;1.00;;;;;;2613215;54;20406;-60
2024/02/16 03:38:46;;;;;;;4.60;1.70;;;16.50;1.00;;;;;;2613174;47;20419;-60
2024/02/16 03:41:18;;;;;;;2.30;1.60;;;16.50;1.00;;;;;;2612519;54;20429;-59
2024/02/16 03:43:43;;;;;;;1.90;1.80;;;16.50;1.00;;;;;;2613111;47;20419;-61
2024/02/16 03:46:09;;;;;;;1.90;1.57;;;16.50;1.00;;;;;;2612913;54;20419;-60
2024/02/16 03:48:35;;;;;;;1.60;1.50;;;16.50;1.00;;;;;;2613497;54;20198;-60
2024/02/16 03:51:02;;;;;;;2.20;1.70;;;16.50;1.00;;;;;;2612867;54;20159;-60
2024/02/16 03:53:28;;;;;;;2.67;1.70;;;16.50;1.00;;;;;;2612759;47;20166;-60
2024/02/16 03:55:54;;;;;;;1.80;1.70;;;16.50;1.00;;;;;;2612685;54;20411;-59
2024/02/16 03:58:19;;;;;;;2.90;1.53;;;16.50;1.00;;;;;;2612418;54;20186;-59
2024/02/16 04:00:45;;;;;;;1.90;1.80;;;16.50;1.00;;;;;;2612479;54;20151;-60
2024/02/16 04:03:11;;;;;;;2.10;1.90;;;16.50;1.00;;;;;;2612018;54;20168;-60
2024/02/16 04:05:40;;;;;;;1.80;1.70;;;16.50;1.00;;;;;;2612027;54;20290;-59
2024/02/16 04:08:06;;;;;;;1.63;1.53;;;16.50;1.00;;;;;;2612795;54;20165;-60
2024/02/16 04:10:32;;;;;;;1.83;1.73;;;16.50;1.00;;;;;;2612997;54;20480;-60
2024/02/16 04:12:58;;;;;;;1.57;1.47;;;16.50;1.00;;;;;;2611829;54;20938;-60
2024/02/16 04:15:24;;;;;;;1.57;1.47;;;16.50;1.00;;;;;;2613342;54;20503;-62
2024/02/16 04:17:49;;;;;;;1.60;1.50;;;16.50;1.00;;;;;;2612607;54;20519;-62
2024/02/16 04:20:16;;;;;;;1.70;1.60;;;16.50;1.00;;;;;;2612512;54;20193;-62
2024/02/16 04:22:42;;;;;;;1.80;1.70;;;16.50;1.00;;;;;;2612485;54;20661;-62
2024/02/16 04:25:08;;;;;;;1.80;1.70;;;16.50;1.00;;;;;;2613034;54;20423;-62
2024/02/16 04:27:34;;;;;;;1.57;1.47;;;16.50;1.00;;;;;;2613000;54;20419;-61
2024/02/16 04:30:01;;;;;;;1.40;1.30;;;16.50;1.00;;;;;;2612068;54;20423;-62
2024/02/16 04:32:26;;;;;;;2.20;2.00;;;16.50;1.00;;;;;;2612113;54;20435;-62
2024/02/16 04:34:52;;;;;;;1.87;1.73;;;16.50;1.00;;;;;;2613012;54;20414;-62
2024/02/16 04:37:18;;;;;;;1.60;1.50;;;16.50;1.00;;;;;;2612855;54;20162;-62
2024/02/16 04:39:44;;;;;;;2.00;1.90;;;16.50;1.00;;;;;;2613343;54;20426;-62
2024/02/16 04:42:11;;;;;;;1.63;1.53;;;16.50;1.00;;;;;;2612585;54;20436;-62
2024/02/16 04:44:40;;;;;;;1.70;1.60;;;16.50;1.00;;;;;;2612034;54;21365;-62
2024/02/16 04:47:06;;;;;;;1.50;1.40;;;16.50;1.00;;;;;;2612659;54;20518;-62
2024/02/16 04:49:32;;;;;;;1.70;1.60;;;16.50;1.00;;;;;;2613180;54;20699;-62
2024/02/16 04:51:57;;;;;;;2.00;1.77;;;16.50;1.00;;;;;;2612189;54;20178;-62
2024/02/16 04:54:23;;;;;;;1.80;1.70;;;16.50;1.00;;;;;;2613457;54;20157;-61
2024/02/16 04:56:49;;;;;;;1.93;1.77;;;16.50;1.00;;;;;;2613104;54;20186;-62
2024/02/16 04:59:18;;;;;;;1.57;1.47;;;16.50;1.00;;;;;;2613382;54;20450;-62
2024/02/16 05:01:47;;;;;;;1.93;1.37;;;16.50;1.00;;;;;;2613234;39;20574;-62
2024/02/16 05:04:16;;;;;;;1.67;1.57;;;16.50;1.00;;;;;;2613204;54;20476;-71
2024/02/16 05:06:43;;;;;;;1.73;1.63;;;16.50;1.00;;;;;;2613279;54;20413;-71
2024/02/16 05:09:08;;;;;;;1.57;1.47;;;16.50;1.00;;;;;;2614221;54;20415;-72
2024/02/16 05:11:34;;;;;;;1.50;1.40;;;16.50;1.00;;;;;;2613627;54;20534;-72
2024/02/16 05:14:00;;;;;;;1.77;1.63;;;16.50;1.00;;;;;;2613993;54;20155;-72
2024/02/16 05:16:26;;;;;;;1.60;1.50;;;16.50;1.00;;;;;;2613984;54;20171;-71
2024/02/16 05:18:52;;;;;;;1.93;1.83;;;16.50;1.00;;;;;;2614468;39;20897;-71
2024/02/16 05:21:18;;;;;;;1.60;1.50;;;16.50;1.00;;;;;;2613738;54;20458;-71
2024/02/16 05:23:44;;;;;;;1.60;1.50;;;16.50;1.00;;;;;;2613620;54;20504;-67
2024/02/16 05:26:10;;;;;;;1.40;1.30;;;16.50;1.00;;;;;;2612716;54;20171;-67
2024/02/16 05:28:37;;;;;;;2.03;1.67;;;16.50;1.00;;;;;;2613246;54;20151;-67
2024/02/16 05:31:17;;;;;;;1.20;1.07;;;16.50;1.00;;;;;;2613636;54;20495;-67
2024/02/16 05:33:44;;;;;;;1.70;1.47;;;16.50;1.00;;;;;;2613759;54;20394;-67
2024/02/16 05:36:10;;;;;;;1.47;1.37;;;16.50;1.00;;;;;;2613737;54;20415;-67
2024/02/16 05:38:41;;;;;;;1.47;1.37;;;16.50;1.00;;;;;;2612557;54;20425;-67
2024/02/16 05:41:11;;;;;;;1.60;1.50;;;16.50;1.00;;;;;;2614139;39;20863;-66
2024/02/16 05:43:40;;;;;;;2.03;1.30;;;16.50;1.00;;;;;;2613359;47;20433;-66
2024/02/16 05:46:06;;;;;;;1.70;1.53;;;16.50;1.00;;;;;;2613761;54;20965;-67
2024/02/16 05:48:39;;;;;;;1.57;1.40;;;16.50;1.00;;;;;;2612876;54;20451;-67
2024/02/16 05:51:05;;;;;;;1.30;1.20;;;16.50;1.00;;;;;;2613629;39;21063;-65
2024/02/16 05:53:34;;;;;;;1.50;1.40;;;16.50;1.00;;;;;;2613083;39;20736;-67
2024/02/16 05:56:00;;;;;;;1.50;1.40;;;16.50;1.00;;;;;;2613701;54;20799;-66
2024/02/16 05:58:27;;;;;;;1.77;1.57;;;16.50;1.00;;;;;;2613236;54;20437;-67
2024/02/16 06:00:54;;;;;;;1.90;1.33;;;16.50;1.00;;;;;;2612004;54;20405;-66
2024/02/16 06:03:20;;;;;;;1.67;1.57;;;16.50;1.00;;;;;;2613058;54;20446;-66
2024/02/16 06:05:46;;;;;;;1.50;1.40;;;16.50;1.00;;;;;;2613029;54;20395;-66
2024/02/16 06:08:12;;;;;;;1.57;1.47;;;16.50;1.00;;;;;;2613247;54;20457;-66
2024/02/16 06:10:38;;;;;;;1.70;1.60;;;16.50;1.00;;;;;;2612838;54;20181;-66
2024/02/16 06:13:04;;;;;;;1.60;1.50;;;16.50;1.00;;;;;;2613458;54;20388;-65
2024/02/16 06:15:29;;;;;;;1.30;1.20;;;16.50;1.00;;;;;;2612939;54;20488;-64
2024/02/16 06:17:56;;;;;;;1.40;1.30;;;16.50;1.00;;;;;;2612778;39;20596;-63
2024/02/16 06:20:22;;;;;;;1.97;1.77;;;16.50;1.00;;;;;;2612695;54;20708;-64
2024/02/16 06:22:47;;;;;;;2.70;1.67;;;16.50;1.00;;;;;;2612657;54;20380;-63
2024/02/16 06:25:15;;;;;;;1.63;1.50;;;16.50;1.00;;;;;;2613408;39;20805;-64
2024/02/16 06:27:41;;;;;;;1.40;1.30;;;16.50;1.00;;;;;;2613371;54;20160;-64
2024/02/16 06:30:10;;;;;;;2.20;1.63;;;16.50;1.00;;;;;;2613251;54;20551;-63
2024/02/16 06:32:36;;;;;;;1.37;1.27;;;16.50;1.00;;;;;;2613019;47;20535;-63
2024/02/16 06:35:01;;;;;;;1.70;1.50;;;16.50;1.00;;;;;;2613028;54;20693;-66
2024/02/16 06:37:27;;;;;;;1.67;1.57;;;16.50;1.00;;;;;;2612640;54;20155;-66
2024/02/16 06:39:53;;;;;;;1.47;1.37;;;16.50;1.00;;;;;;2613535;54;20174;-66
2024/02/16 06:42:18;;;;;;;2.80;1.50;;;16.50;1.00;;;;;;2613305;39;20560;-66
2024/02/16 06:44:44;;;;;;;1.50;1.40;;;16.50;1.00;;;;;;2612681;54;20162;-66
2024/02/16 06:47:09;;;;;;;2.07;1.80;;;16.50;1.00;;;;;;2612572;54;20150;-67
2024/02/16 06:49:35;;;;;;;1.37;1.23;;;16.50;1.00;;;;;;2613145;54;20839;-66
2024/02/16 06:52:01;;;;;;;1.53;1.43;;;16.50;1.00;;;;;;2613446;54;20167;-66
2024/02/16 06:54:26;;;;;;;1.47;1.37;;;16.50;1.00;;;;;;2612187;54;20160;-66
2024/02/16 06:56:52;;;;;;;3.00;1.50;;;16.50;1.00;;;;;;2613442;54;20140;-67
2024/02/16 06:59:18;;;;;;;1.50;1.40;;;16.50;1.00;;;;;;2613040;54;20684;-67
2024/02/16 07:01:43;;;;;;;1.70;1.60;;;16.50;1.00;;;;;;2612373;54;20193;-68
2024/02/16 07:04:09;;;;;;;1.67;1.57;;;16.50;1.00;;;;;;2613256;54;20178;-66
2024/02/16 07:06:35;;;;;;;1.83;1.70;;;16.50;1.00;;;;;;2613159;54;20175;-68
2024/02/16 07:09:02;;;;;;;2.00;1.70;;;16.50;1.00;;;;;;2613170;39;20694;-67
2024/02/16 07:11:28;;;;;;;1.60;1.50;;;16.50;1.00;;;;;;2612736;54;20877;-67
2024/02/16 07:13:53;;;;;;;1.70;1.60;;;16.50;1.00;;;;;;2613088;46;20576;-68
2024/02/16 07:16:19;;;;;;;1.47;1.37;;;16.50;1.00;;;;;;2612958;54;20419;-67
2024/02/16 07:18:45;;;;;;;1.70;1.60;;;16.50;1.00;;;;;;2612682;39;20581;-67
2024/02/16 07:21:11;;;;;;;1.50;1.40;;;16.50;1.00;;;;;;2613479;31;20639;-67
2024/02/16 07:23:37;;;;;;;1.80;1.70;;;16.50;1.00;;;;;;2612854;54;20152;-64
2024/02/16 07:26:02;;;;;;;2.10;1.33;;;16.50;1.00;;;;;;2613055;54;20422;-64
2024/02/16 07:28:28;;;;;;;1.57;1.40;;;16.50;1.00;;;;;;2613256;39;20651;-64
2024/02/16 07:30:54;;;;;;;1.70;1.60;;;16.50;1.00;;;;;;2612849;54;20189;-64
2024/02/16 07:33:21;;;;;;;1.50;1.30;;;16.50;1.00;;;;;;2613123;51;20170;-63
2024/02/16 07:35:47;;;;;;;1.67;1.50;;;16.50;1.00;;;;;;2612585;47;20398;-64
2024/02/16 07:38:13;;;;;;;5.60;2.27;;;16.50;1.00;;;;;;2613070;54;20492;-64
2024/02/16 07:40:39;;;;;;;1.73;1.40;;;16.50;1.00;;;;;;2612877;54;20400;-64
2024/02/16 07:43:05;;;;;;;1.73;1.63;;;16.50;1.00;;;;;;2612934;54;20168;-64
2024/02/16 07:45:31;;;;;;;1.77;1.67;;;16.50;1.00;;;;;;2613722;54;20437;-67
2024/02/16 07:47:57;;;;;;;1.73;1.63;;;16.60;1.00;;;;;;2612984;54;20424;-67
2024/02/16 07:50:23;;;;;;;1.60;1.50;;;16.50;1.00;;;;;;2612532;54;20434;-67
2024/02/16 07:52:50;;;;;;;1.70;1.60;;;16.50;1.00;;;;;;2612625;54;20222;-67
2024/02/16 07:55:20;;;;;;;1.70;1.60;;;16.60;1.00;;;;;;2613821;39;20768;-67
2024/02/16 07:57:46;;;;;;;1.60;1.50;;;16.50;1.00;;;;;;2613352;47;20439;-67
2024/02/16 08:00:13;;;;;;;1.53;1.43;;;16.50;1.00;;;;;;2613215;54;20426;-67
2024/02/16 08:02:43;;;;;;;1.93;1.43;;;16.50;1.00;;;;;;2612993;47;20411;-67
2024/02/16 08:05:12;;;;;;;1.70;1.60;;;16.60;1.00;;;;;;2612379;47;20425;-64
2024/02/16 08:07:38;;;;;;;1.70;1.30;;;16.60;1.00;;;;;;2612463;54;20556;-64
2024/02/16 08:10:04;;;;;;;1.63;1.53;;;16.50;1.00;;;;;;2613143;47;20993;-64
2024/02/16 08:12:31;;;;;;;1.70;1.60;;;16.60;1.00;;;;;;2611876;54;20446;-64
2024/02/16 08:14:58;;;;;;;1.50;1.40;;;16.60;1.00;;;;;;2612695;54;20412;-64
2024/02/16 08:17:24;;;;;;;1.40;1.30;;;16.60;1.00;;;;;;2612065;47;20423;-63
2024/02/16 08:19:56;;;;;;;1.80;1.70;;;16.60;1.00;;;;;;2613063;54;20429;-63
2024/02/16 08:22:22;;;;;;;1.73;1.63;;;16.60;1.00;;;;;;2612369;47;20441;-64
2024/02/16 08:24:49;;;;;;;2.20;1.67;;;16.60;1.00;;;;;;2612352;54;20457;-63
2024/02/16 08:27:15;;;;;;;1.53;1.43;;;16.60;1.00;;;;;;2612831;54;20423;-63
2024/02/16 08:29:42;;;;;;;1.80;1.70;;;16.60;1.00;;;;;;2613476;39;20872;-63
2024/02/16 08:32:08;;;;;;;2.40;1.83;;;16.60;1.00;;;;;;2613562;54;21074;-64
2024/02/16 08:34:36;;;;;;;1.70;1.40;;;16.60;1.00;;;;;;2613356;54;20427;-60
2024/02/16 08:37:03;;;;;;;3.37;1.63;;;16.60;1.00;;;;;;2613706;51;20425;-62
2024/02/16 08:39:30;;;;;;;1.50;1.40;;;16.60;1.00;;;;;;2614074;39;20912;-61
2024/02/16 08:41:56;;;;;;;1.80;1.30;;;16.60;1.00;;;;;;2613003;47;20448;-61
2024/02/16 08:44:22;;;;;;;2.30;1.67;;;16.60;1.00;;;;;;2613260;51;20441;-60
2024/02/16 08:46:49;;;;;;;1.83;1.70;;;16.60;1.00;;;;;;2613656;54;20391;-60
2024/02/16 08:49:16;;;;;;;2.30;1.63;;;16.60;1.00;;;;;;2613089;54;20178;-61
2024/02/16 08:51:42;;;;;;;1.30;1.20;;;16.60;1.00;;;;;;2612954;54;20414;-60
2024/02/16 08:54:08;;;;;;;2.13;1.53;;;16.60;1.00;;;;;;2613509;54;21015;-61
2024/02/16 08:56:35;;;;;;;1.70;1.53;;;16.60;1.00;;;;;;2613401;54;20841;-60
2024/02/16 08:59:02;;;;;;;1.57;1.47;;;16.60;1.00;;;;;;2612253;54;20707;-60
2024/02/16 09:01:38;;;;;;;3.90;1.30;;;16.60;1.00;;;;;;2613213;47;20423;-60
2024/02/16 09:04:04;;;;;;;1.83;1.63;;;16.60;1.00;;;;;;2613428;54;20858;-61
2024/02/16 09:06:30;;;;;;;2.20;2.00;;;16.60;1.00;;;;;;2612986;54;20430;-61
2024/02/16 09:08:56;;;;;;;1.80;1.70;;;16.60;1.00;;;;;;2613298;54;20399;-61
2024/02/16 09:11:22;;;;;;;1.47;1.37;;;16.60;1.00;;;;;;2612897;47;20177;-61
2024/02/16 09:13:48;;;;;;;1.50;1.40;;;16.60;1.00;;;;;;2612909;54;20411;-65
2024/02/16 09:16:13;;;;;;;1.60;1.50;;;16.60;1.00;;;;;;2612804;54;20404;-64
2024/02/16 09:18:39;;;;;;;1.30;1.20;;;16.60;1.00;;;;;;2613836;54;20154;-64
2024/02/16 09:21:06;;;;;;;1.70;1.60;;;16.50;1.00;;;;;;2613386;46;20270;-65
2024/02/16 09:23:33;;;;;;;1.97;1.80;;;16.60;1.00;;;;;;2613036;54;20159;-64
2024/02/16 09:25:59;;;;;;;2.10;1.60;;;16.60;1.00;;;;;;2612638;54;20544;-65
2024/02/16 09:28:26;;;;;;;2.07;1.87;;;16.60;1.00;;;;;;2613679;54;20958;-65
2024/02/16 09:30:51;;;;;;;1.43;1.33;;;16.60;1.00;;;;;;2613017;54;21167;-66
2024/02/16 09:33:17;;;;;;;2.23;1.67;;;16.60;1.00;;;;;;2612154;51;20544;-64
2024/02/16 09:35:44;;;;;;;2.87;1.77;;;16.60;1.00;;;;;;2612832;54;20146;-66
2024/02/16 09:38:12;;;;;;;1.60;1.47;;;16.60;1.00;;;;;;2613355;39;20745;-65
2024/02/16 09:40:38;;;;;;;1.80;1.27;;;16.60;1.00;;;;;;2613131;54;20416;-67
2024/02/16 09:43:04;;;;;;;1.63;1.40;;;16.60;1.00;;;;;;2612385;54;20398;-65
2024/02/16 09:45:31;;;;;;;1.40;1.30;;;16.60;1.00;;;;;;2614326;31;20849;-61
2024/02/16 09:47:58;;;;;;;2.03;1.90;;;16.60;1.00;;;;;;2613270;54;20631;-62
2024/02/16 09:50:23;;;;;;;1.70;1.50;;;16.60;1.00;;;;;;2612220;54;20440;-62
2024/02/16 09:52:50;;;;;;;1.73;1.37;;;16.60;1.00;;;;;;2613952;39;20844;-61
2024/02/16 09:55:17;;;;;;;1.80;1.33;;;16.60;1.00;;;;;;2613250;31;20642;-61
2024/02/16 09:57:45;;;;;;;1.90;1.55;;;16.60;1.00;;;;;;2613520;54;20975;-62
2024/02/16 10:00:13;;;;;;;1.77;1.60;;;16.70;1.00;;;;;;2612795;54;20158;-60
2024/02/16 10:02:45;;;;;;;1.50;1.40;;;16.70;1.00;;;;;;2613637;39;20824;-60
2024/02/16 10:05:20;;;;;;;1.90;1.73;;;16.70;1.00;;;;;;2613395;54;20410;-65
2024/02/16 10:07:47;;;;;;;2.03;1.40;;;16.70;1.00;;;;;;2613060;54;20451;-65
2024/02/16 10:10:37;;;;;;;1.60;1.50;;;16.60;1.00;;;;;;2613575;54;20422;-65
2024/02/16 10:13:07;;;;;;;2.10;1.90;;;16.70;1.00;;;;;;2613846;39;20813;-65
2024/02/16 10:15:34;;;;;;;1.90;1.50;;;16.60;1.00;;;;;;2613531;54;20487;-65
2024/02/16 10:18:00;;;;;;;1.43;1.33;;;16.70;1.00;;;;;;2613187;54;20422;-65
2024/02/16 10:20:26;;;;;;;1.90;1.80;;;16.60;1.00;;;;;;2612275;54;20422;-66
2024/02/16 10:23:11;;;;;;;1.50;1.40;;;16.70;1.00;;;;;;2613779;54;21380;-65
2024/02/16 10:25:40;;;;;;;2.37;1.93;;;16.70;1.00;;;;;;2613787;54;20179;-65
2024/02/16 10:28:14;;;;;;;1.50;1.40;;;16.70;1.00;;;;;;2612157;54;20457;-65
2024/02/16 10:30:44;;;;;;;1.87;1.57;;;16.70;1.00;;;;;;2613048;54;20511;-65
2024/02/16 10:33:12;;;;;;;2.00;1.80;;;16.70;1.00;;;;;;2613449;39;20846;-65
2024/02/16 10:35:38;;;;;;;1.60;1.47;;;16.70;1.00;;;;;;2612863;54;20448;-65
2024/02/16 10:38:09;;;;;;;1.90;1.70;;;16.70;1.00;;;;;;2612966;54;20404;-65
2024/02/16 10:40:40;;;;;;;1.70;1.60;;;16.70;1.00;;;;;;2613263;54;20893;-65
2024/02/16 10:43:06;;;;;;;1.97;1.80;;;16.70;1.00;;;;;;2612938;39;20854;-65
2024/02/16 10:45:37;;;;;;;2.10;1.90;;;16.70;1.00;;;;;;2613282;47;20534;-65
2024/02/16 10:48:04;;;;;;;1.50;1.40;;;16.70;1.00;;;;;;2613093;54;20428;-65
2024/02/16 10:50:32;;;;;;;1.70;1.50;;;16.70;1.00;;;;;;2612823;51;20443;-65
2024/02/16 10:53:02;;;;;;;2.70;1.73;;;16.70;1.00;;;;;;2613390;54;20395;-65
2024/02/16 10:55:28;;;;;;;2.00;1.90;;;16.70;1.00;;;;;;2613326;47;20466;-65
2024/02/16 10:57:56;;;;;;;2.23;1.60;;;16.70;1.00;;;;;;2612375;47;20427;-65
2024/02/16 11:00:22;;;;;;;1.90;1.80;;;16.70;1.00;;;;;;2612346;54;20476;-65
2024/02/16 11:02:59;;;;;;;1.50;1.40;;;16.70;1.00;;;;;;2613250;39;20881;-64
2024/02/16 11:05:35;;;;;;;1.93;1.83;;;16.70;1.00;;;;;;2611792;47;20167;-65
2024/02/16 11:08:04;;;;;;;1.93;1.63;;;16.70;1.00;;;;;;2613108;54;20399;-66
2024/02/16 11:10:30;;;;;;;1.87;1.50;;;16.70;1.00;;;;;;2613123;47;20419;-65
2024/02/16 11:13:08;;;;;;;1.93;1.73;;;16.70;1.00;;;;;;2612176;39;20765;-65
2024/02/16 11:15:37;;;;;;;1.80;1.63;;;16.70;1.00;;;;;;2613398;54;20451;-74
2024/02/16 11:18:03;;;;;;;2.03;1.43;;;16.70;1.00;;;;;;2631102;36;20467;-72
2024/02/16 11:20:36;;;;;;;1.53;1.43;;;16.70;1.00;;;;;;2611429;54;20417;-73
2024/02/16 11:23:09;;;;;;;1.70;1.47;;;16.70;1.00;;;;;;2613581;54;20408;-73
2024/02/16 11:25:36;;;;;;;1.60;1.50;;;16.70;1.00;;;;;;2613178;39;20738;-73
2024/02/16 11:28:03;;;;;;;1.93;1.73;;;16.70;1.00;;;;;;2613455;47;20417;-73
2024/02/16 11:30:28;;;;;;;1.87;1.50;;;16.70;1.00;;;;;;2612471;54;20407;-72
2024/02/16 11:32:54;;;;;;;2.10;1.90;;;16.70;1.00;;;;;;2612582;54;20404;-73
2024/02/16 11:35:19;;;;;;;2.70;1.57;;;16.70;1.00;;;;;;2613375;54;20186;-59
2024/02/16 11:37:47;;;;;;;1.50;1.40;;;16.70;1.00;;;;;;2613258;54;20177;-58
2024/02/16 11:40:13;;;;;;;2.23;1.63;;;16.70;1.00;;;;;;2612681;54;20156;-60
2024/02/16 11:42:40;;;;;;;2.13;1.60;;;16.70;1.00;;;;;;2612567;39;20850;-59
2024/02/16 11:45:06;;;;;;;2.07;1.93;;;16.70;1.00;;;;;;2612240;54;20417;-58
2024/02/16 11:47:31;;;;;;;2.07;1.87;;;16.70;1.00;;;;;;2612932;54;20456;-59
2024/02/16 11:50:11;;;;;;;1.73;1.63;;;16.70;1.00;;;;;;2612218;54;20424;-59
2024/02/16 11:52:38;;;;;;;3.13;1.80;;;16.70;1.00;;;;;;2613567;39;20522;-60
2024/02/16 11:55:08;;;;;;;1.73;1.63;;;16.70;1.00;;;;;;2612762;54;20802;-59
2024/02/16 11:57:35;;;;;;;2.07;1.63;;;16.70;1.00;;;;;;2613226;39;20832;-60
2024/02/16 12:00:06;;;;;;;1.70;1.53;;;16.70;1.00;;;;;;2610786;47;20423;-60
2024/02/16 12:02:34;;;;;;;2.40;2.20;;;16.70;1.00;;;;;;2612735;54;20426;-58
2024/02/16 12:05:00;;;;;;;1.83;1.60;;;16.70;1.00;;;;;;2614041;54;20395;-74
2024/02/16 12:07:29;;;;;;;2.33;1.57;;;16.70;1.00;;;;;;2613500;47;20574;-73
2024/02/16 12:10:05;;;;;;;2.13;1.60;;;16.60;1.00;;;;;;2614041;54;20399;-73
2024/02/16 12:12:31;;;;;;;1.90;1.60;;;16.70;1.00;;;;;;2612335;54;20928;-74
2024/02/16 12:14:58;;;;;;;1.90;1.80;;;16.70;1.00;;;;;;2614084;54;20960;-73
2024/02/16 12:17:23;;;;;;;1.50;1.40;;;16.70;1.00;;;;;;2613610;39;20676;-73
2024/02/16 12:19:51;;;;;;;3.10;1.80;;;16.70;1.00;;;;;;2614187;54;20435;-74
2024/02/16 12:22:18;;;;;;;1.20;1.10;;;16.70;1.00;;;;;;2624425;39;20394;-74
2024/02/16 12:24:45;;;;;;;1.60;1.50;;;16.60;1.00;;;;;;2612698;54;20409;-63
2024/02/16 12:27:11;;;;;;;2.27;1.70;;;16.70;1.00;;;;;;2612968;39;20845;-65
2024/02/16 12:29:36;;;;;;;2.03;1.80;;;16.70;1.00;;;;;;2612790;54;20397;-64
2024/02/16 12:32:02;;;;;;;2.20;1.87;;;16.70;1.00;;;;;;2613419;39;20567;-64
2024/02/16 12:34:28;;;;;;;2.63;1.73;;;16.70;1.00;;;;;;2612177;54;20193;-64
2024/02/16 12:36:53;;;;;;;1.80;1.60;;;16.70;1.00;;;;;;2612564;47;20166;-64
2024/02/16 12:39:19;;;;;;;2.20;2.00;;;16.70;1.00;;;;;;2612476;54;20176;-63
2024/02/16 12:41:46;;;;;;;2.43;2.23;;;16.70;1.00;;;;;;2612685;54;20158;-64
2024/02/16 12:44:12;;;;;;;1.87;1.77;;;16.70;1.00;;;;;;2612783;47;20172;-60
2024/02/16 12:46:38;;;;;;;1.97;1.60;;;16.70;1.00;;;;;;2612866;47;20451;-60
2024/02/16 12:49:04;;;;;;;2.13;1.63;;;16.60;1.00;;;;;;2613019;54;20209;-59
2024/02/16 12:51:30;;;;;;;1.70;1.60;;;16.70;1.00;;;;;;2612682;54;20938;-59
2024/02/16 12:53:56;;;;;;;1.80;1.70;;;16.60;1.00;;;;;;2612276;54;20692;-59
2024/02/16 12:56:21;;;;;;;2.00;1.90;;;16.60;1.00;;;;;;2612902;54;20221;-59